createdAt,value
2022-10-19T00:01:05.144Z,9.80
2022-10-19T00:03:33.390Z,9.80
2022-10-19T00:06:01.670Z,9.80
2022-10-19T00:08:29.557Z,9.80
2022-10-19T00:10:57.577Z,9.70
2022-10-19T00:13:25.486Z,9.70
2022-10-19T00:15:53.398Z,9.70
2022-10-19T00:18:22.697Z,9.70
2022-10-19T00:20:50.623Z,9.70
2022-10-19T00:23:18.526Z,9.70
2022-10-19T00:25:56.079Z,9.60
2022-10-19T00:28:24.041Z,9.60
2022-10-19T00:30:52.080Z,9.60
2022-10-19T00:33:22.216Z,9.60
2022-10-19T00:35:52.680Z,9.60
2022-10-19T00:38:22.263Z,9.60
2022-10-19T00:40:50.534Z,9.60
2022-10-19T00:43:20.761Z,9.50
2022-10-19T00:45:49.540Z,9.50
2022-10-19T00:48:20.543Z,9.50
2022-10-19T00:50:50.277Z,9.50
2022-10-19T00:53:19.624Z,9.50
2022-10-19T00:55:48.151Z,9.50
2022-10-19T00:58:16.619Z,9.50
2022-10-19T01:00:44.640Z,9.40
2022-10-19T01:03:14.356Z,9.40
2022-10-19T01:05:43.057Z,9.40
2022-10-19T01:08:12.258Z,9.40
2022-10-19T01:10:47.052Z,9.40
2022-10-19T01:13:28.989Z,9.40
2022-10-19T01:16:04.947Z,9.40
2022-10-19T01:18:40.723Z,9.40
2022-10-19T01:21:20.936Z,9.40
2022-10-19T01:24:23.056Z,9.40
2022-10-19T01:27:33.632Z,9.40
2022-10-19T01:30:12.535Z,9.30
2022-10-19T01:33:00.509Z,9.30
2022-10-19T01:35:34.480Z,9.30
2022-10-19T01:38:19.213Z,9.30
2022-10-19T01:40:56.892Z,9.30
2022-10-19T01:43:32.695Z,9.30
2022-10-19T01:46:08.417Z,9.20
2022-10-19T01:48:40.099Z,9.20
2022-10-19T01:51:14.217Z,9.20
2022-10-19T01:53:45.935Z,9.20
2022-10-19T01:56:15.866Z,9.10
2022-10-19T01:58:45.991Z,9.10
2022-10-19T02:01:19.568Z,9.10
2022-10-19T02:03:47.943Z,9.10
2022-10-19T02:06:16.336Z,9.10
2022-10-19T02:08:47.760Z,9.00
2022-10-19T02:11:16.007Z,9.00
2022-10-19T02:13:45.071Z,9.00
2022-10-19T02:16:19.481Z,9.00
2022-10-19T02:18:51.600Z,9.00
2022-10-19T02:21:20.079Z,9.00
2022-10-19T02:23:49.421Z,8.90
2022-10-19T02:26:20.339Z,8.90
2022-10-19T02:28:48.917Z,8.90
2022-10-19T02:31:18.228Z,8.90
2022-10-19T02:33:46.325Z,8.80
2022-10-19T02:36:14.366Z,8.80
2022-10-19T02:38:43.370Z,8.80
2022-10-19T02:41:19.529Z,8.80
2022-10-19T02:43:52.340Z,8.80
2022-10-19T02:46:27.402Z,8.70
2022-10-19T02:48:56.260Z,8.70
2022-10-19T02:51:32.919Z,8.70
2022-10-19T02:54:04.143Z,8.70
2022-10-19T02:56:34.127Z,8.60
2022-10-19T02:59:02.400Z,8.60
2022-10-19T03:01:31.765Z,8.60
2022-10-19T03:03:59.797Z,8.60
2022-10-19T03:06:27.756Z,8.60
2022-10-19T03:08:55.677Z,8.60
2022-10-19T03:11:23.780Z,8.50
2022-10-19T03:13:51.669Z,8.50
2022-10-19T03:16:19.925Z,8.50
2022-10-19T03:18:50.692Z,8.50
2022-10-19T03:21:19.755Z,8.50
2022-10-19T03:23:47.649Z,8.50
2022-10-19T03:26:17.852Z,8.40
2022-10-19T03:28:46.113Z,8.40
2022-10-19T03:31:14.133Z,8.40
2022-10-19T03:33:42.033Z,8.40
2022-10-19T03:36:22.858Z,8.30
2022-10-19T03:38:55.296Z,8.40
2022-10-19T03:41:24.951Z,8.30
2022-10-19T03:43:53.261Z,8.30
2022-10-19T03:46:22.219Z,8.30
2022-10-19T03:48:50.410Z,8.20
2022-10-19T03:51:22.015Z,8.20
2022-10-19T03:53:54.090Z,8.20
2022-10-19T03:56:24.089Z,8.20
2022-10-19T03:58:53.022Z,8.10
2022-10-19T04:01:22.555Z,8.10
2022-10-19T04:03:54.632Z,8.10
2022-10-19T04:06:26.792Z,8.10
2022-10-19T04:08:54.856Z,8.10
2022-10-19T04:11:25.065Z,8.00
2022-10-19T04:13:54.453Z,8.00
2022-10-19T04:16:23.460Z,8.00
2022-10-19T04:18:52.521Z,8.00
2022-10-19T04:21:24.480Z,8.00
2022-10-19T04:23:53.584Z,7.90
2022-10-19T04:26:21.711Z,7.90
2022-10-19T04:28:49.824Z,7.90
2022-10-19T04:31:17.747Z,7.90
2022-10-19T04:36:18.822Z,7.90
2022-10-19T04:38:48.229Z,7.90
2022-10-19T04:41:19.319Z,7.90
2022-10-19T04:43:48.004Z,7.90
2022-10-19T04:46:18.003Z,7.80
2022-10-19T04:48:47.254Z,7.80
2022-10-19T04:51:16.035Z,7.80
2022-10-19T04:53:44.625Z,7.80
2022-10-19T04:56:16.358Z,7.80
2022-10-19T04:58:44.475Z,7.80
2022-10-19T05:01:14.591Z,7.80
2022-10-19T05:03:42.914Z,7.80
2022-10-19T05:06:12.277Z,7.80
2022-10-19T05:08:40.954Z,7.80
2022-10-19T05:11:10.550Z,7.80
2022-10-19T05:13:40.048Z,7.80
2022-10-19T05:16:12.120Z,7.80
2022-10-19T05:18:40.601Z,7.80
2022-10-19T05:21:10.379Z,7.80
2022-10-19T05:23:38.723Z,7.80
2022-10-19T05:26:08.448Z,7.80
2022-10-19T05:28:37.384Z,7.80
2022-10-19T05:31:11.636Z,7.80
2022-10-19T05:33:40.061Z,7.80
2022-10-19T05:36:13.400Z,7.80
2022-10-19T05:38:41.413Z,7.80
2022-10-19T05:41:09.359Z,7.70
2022-10-19T05:43:37.318Z,7.70
2022-10-19T05:46:07.265Z,7.70
2022-10-19T05:48:36.913Z,7.80
2022-10-19T05:51:06.485Z,7.70
2022-10-19T05:53:35.521Z,7.70
2022-10-19T05:56:05.923Z,7.70
2022-10-19T05:58:34.074Z,7.70
2022-10-19T06:01:02.959Z,7.70
2022-10-19T06:03:31.587Z,7.70
2022-10-19T06:06:03.948Z,7.70
2022-10-19T06:08:31.938Z,7.60
2022-10-19T06:11:06.790Z,7.60
2022-10-19T06:13:34.757Z,7.60
2022-10-19T06:16:02.675Z,7.60
2022-10-19T06:18:30.664Z,7.60
2022-10-19T06:21:04.806Z,7.60
2022-10-19T06:23:32.873Z,7.60
2022-10-19T06:26:02.892Z,7.60
2022-10-19T06:28:30.961Z,7.60
2022-10-19T06:30:58.951Z,7.50
2022-10-19T06:33:27.232Z,7.50
2022-10-19T06:35:55.949Z,7.50
2022-10-19T06:38:25.268Z,7.50
2022-10-19T06:40:53.206Z,7.50
2022-10-19T06:43:21.141Z,7.50
2022-10-19T06:45:49.071Z,7.50
2022-10-19T06:48:16.987Z,7.50
2022-10-19T06:50:44.938Z,7.50
2022-10-19T06:53:13.087Z,7.50
2022-10-19T06:55:42.362Z,7.50
2022-10-19T06:58:10.303Z,7.50
2022-10-19T07:00:38.223Z,7.50
2022-10-19T07:03:06.222Z,7.50
2022-10-19T07:05:34.154Z,7.50
2022-10-19T07:08:02.143Z,7.50
2022-10-19T07:10:30.095Z,7.50
2022-10-19T07:12:59.387Z,7.50
2022-10-19T07:15:27.313Z,7.60
2022-10-19T07:17:55.207Z,7.60
2022-10-19T07:20:24.123Z,7.60
2022-10-19T07:22:52.089Z,7.60
2022-10-19T07:25:20.051Z,7.60
2022-10-19T07:27:47.952Z,7.60
2022-10-19T07:30:17.398Z,7.70
2022-10-19T07:32:47.059Z,7.70
2022-10-19T07:35:15.860Z,7.70
2022-10-19T07:37:43.806Z,7.70
2022-10-19T07:40:13.228Z,7.70
2022-10-19T07:42:41.173Z,7.70
2022-10-19T07:45:09.520Z,7.80
2022-10-19T07:47:38.777Z,7.80
2022-10-19T07:50:07.093Z,7.80
2022-10-19T07:52:36.930Z,7.80
2022-10-19T07:55:05.703Z,7.90
2022-10-19T07:57:33.670Z,7.90
2022-10-19T08:00:01.658Z,7.90
2022-10-19T08:02:39.445Z,7.90
2022-10-19T08:05:19.066Z,8.00
2022-10-19T08:07:47.149Z,8.00
2022-10-19T08:10:15.127Z,8.00
2022-10-19T08:12:43.021Z,8.10
2022-10-19T08:15:11.325Z,8.10
2022-10-19T08:17:39.767Z,8.10
2022-10-19T08:20:09.182Z,8.20
2022-10-19T08:22:38.455Z,8.20
2022-10-19T08:25:07.220Z,8.30
2022-10-19T08:30:08.888Z,8.40
2022-10-19T08:32:37.055Z,8.40
2022-10-19T08:35:10.006Z,8.50
2022-10-19T08:37:44.794Z,8.50
2022-10-19T08:40:19.555Z,8.60
2022-10-19T08:42:55.815Z,8.60
2022-10-19T08:45:31.511Z,8.70
2022-10-19T08:48:05.334Z,8.80
2022-10-19T08:50:38.349Z,8.90
2022-10-19T08:53:12.238Z,9.10
2022-10-19T08:55:49.922Z,9.30
2022-10-19T08:58:29.724Z,9.40
2022-10-19T09:01:03.353Z,9.60
2022-10-19T09:03:55.915Z,9.70
2022-10-19T09:06:28.342Z,9.90
2022-10-19T09:09:06.727Z,10.00
2022-10-19T09:11:40.451Z,10.10
2022-10-19T09:14:17.098Z,10.20
2022-10-19T09:16:46.291Z,10.40
2022-10-19T09:19:19.060Z,10.50
2022-10-19T09:21:51.962Z,10.60
2022-10-19T09:24:29.982Z,10.80
2022-10-19T09:27:00.438Z,10.90
2022-10-19T09:29:37.019Z,11.00
2022-10-19T09:32:06.894Z,11.10
2022-10-19T09:34:41.764Z,11.10
2022-10-19T09:37:12.942Z,11.20
2022-10-19T09:39:52.426Z,11.30
2022-10-19T09:42:26.628Z,11.40
2022-10-19T09:44:56.246Z,11.40
2022-10-19T09:47:36.411Z,11.50
2022-10-19T09:50:14.878Z,11.60
2022-10-19T09:52:44.418Z,11.70
2022-10-19T09:55:28.230Z,11.80
2022-10-19T09:58:02.685Z,11.80
2022-10-19T10:00:37.791Z,11.90
2022-10-19T10:03:07.489Z,12.00
2022-10-19T10:05:37.072Z,12.10
2022-10-19T10:08:06.431Z,12.10
2022-10-19T10:10:43.287Z,12.20
2022-10-19T10:13:17.966Z,12.20
2022-10-19T10:15:49.120Z,12.30
2022-10-19T10:18:18.340Z,12.40
2022-10-19T10:20:59.500Z,12.40
2022-10-19T10:23:31.246Z,12.50
2022-10-19T10:26:01.992Z,12.50
2022-10-19T10:28:31.338Z,12.60
2022-10-19T10:31:04.503Z,12.60
2022-10-19T10:36:29.389Z,12.70
2022-10-19T10:39:04.309Z,12.80
2022-10-19T10:41:39.441Z,12.80
2022-10-19T10:44:16.366Z,12.90
2022-10-19T10:46:52.319Z,12.90
2022-10-19T10:49:24.606Z,12.90
2022-10-19T10:51:55.984Z,13.00
2022-10-19T10:54:25.529Z,13.10
2022-10-19T10:57:06.791Z,13.10
2022-10-19T10:59:43.178Z,13.20
2022-10-19T11:05:00.443Z,13.30
2022-10-19T11:07:31.966Z,13.30
2022-10-19T11:10:06.749Z,13.40
2022-10-19T11:12:44.438Z,13.50
2022-10-19T11:15:21.483Z,13.50
2022-10-19T11:18:09.056Z,13.50
2022-10-19T11:20:42.358Z,13.50
2022-10-19T11:23:19.376Z,13.60
2022-10-19T11:25:56.897Z,13.60
2022-10-19T11:28:42.762Z,13.70
2022-10-19T11:31:17.075Z,13.80
2022-10-19T11:33:57.409Z,13.80
2022-10-19T11:36:43.350Z,13.90
2022-10-19T11:39:31.199Z,13.90
2022-10-19T11:42:07.447Z,14.00
2022-10-19T11:44:51.506Z,14.00
2022-10-19T11:47:36.850Z,14.00
2022-10-19T11:50:14.932Z,14.10
2022-10-19T11:52:48.242Z,14.10
2022-10-19T11:55:29.139Z,14.10
2022-10-19T11:58:06.511Z,14.20
2022-10-19T12:00:43.954Z,14.20
2022-10-19T12:03:31.707Z,14.30
2022-10-19T12:06:12.786Z,14.40
2022-10-19T12:08:59.048Z,14.40
2022-10-19T12:11:42.020Z,14.40
2022-10-19T12:14:14.617Z,14.50
2022-10-19T12:16:49.665Z,14.50
2022-10-19T12:19:21.500Z,14.60
2022-10-19T12:21:51.455Z,14.60
2022-10-19T12:24:22.723Z,14.60
2022-10-19T12:26:52.877Z,14.60
2022-10-19T12:29:24.160Z,14.70
2022-10-19T12:31:56.196Z,14.70
2022-10-19T12:34:33.409Z,14.70
2022-10-19T12:37:08.074Z,14.70
2022-10-19T12:39:44.172Z,14.80
2022-10-19T12:42:19.750Z,14.80
2022-10-19T12:45:06.244Z,14.90
2022-10-19T12:47:36.170Z,14.90
2022-10-19T12:50:05.047Z,15.00
2022-10-19T12:52:45.867Z,15.00
2022-10-19T12:55:26.519Z,15.00
2022-10-19T12:58:01.084Z,15.00
2022-10-19T13:00:32.083Z,15.00
2022-10-19T13:03:05.627Z,15.00
2022-10-19T13:05:35.666Z,15.10
2022-10-19T13:08:08.114Z,15.10
2022-10-19T13:10:38.892Z,15.10
2022-10-19T13:13:27.064Z,15.10
2022-10-19T13:15:56.441Z,15.10
2022-10-19T13:19:07.441Z,15.10
2022-10-19T13:21:50.428Z,15.10
2022-10-19T13:24:30.767Z,15.20
2022-10-19T13:27:28.066Z,15.20
2022-10-19T13:29:56.394Z,15.20
2022-10-19T13:32:38.668Z,15.30
2022-10-19T13:35:34.642Z,15.30
2022-10-19T13:38:32.767Z,15.30
2022-10-19T13:41:08.142Z,15.40
2022-10-19T13:43:40.534Z,15.40
2022-10-19T13:46:12.516Z,15.40
2022-10-19T13:49:08.658Z,15.40
2022-10-19T13:51:49.326Z,15.40
2022-10-19T13:54:32.292Z,15.40
2022-10-19T13:57:20.376Z,15.40
2022-10-19T14:00:11.563Z,15.50
2022-10-19T14:03:22.491Z,15.50
2022-10-19T14:06:24.620Z,15.40
2022-10-19T14:09:21.789Z,15.50
2022-10-19T14:11:52.349Z,15.40
2022-10-19T14:14:22.659Z,15.40
2022-10-19T14:16:55.215Z,15.50
2022-10-19T14:19:28.984Z,15.40
2022-10-19T14:22:00.309Z,15.50
2022-10-19T14:24:31.712Z,15.50
2022-10-19T14:27:02.023Z,15.40
2022-10-19T14:29:44.414Z,15.40
2022-10-19T14:32:13.303Z,15.40
2022-10-19T14:34:42.639Z,15.40
2022-10-19T14:37:20.030Z,15.40
2022-10-19T14:40:03.393Z,15.30
2022-10-19T14:42:42.992Z,15.30
2022-10-19T14:45:15.688Z,15.30
2022-10-19T14:48:02.199Z,15.30
2022-10-19T14:50:40.306Z,15.40
2022-10-19T14:53:26.577Z,15.40
2022-10-19T14:55:56.852Z,15.40
2022-10-19T14:58:26.471Z,15.40
2022-10-19T15:00:56.536Z,15.40
2022-10-19T15:03:27.938Z,15.40
2022-10-19T15:06:00.383Z,15.40
2022-10-19T15:08:38.964Z,15.30
2022-10-19T15:11:07.839Z,15.30
2022-10-19T15:13:39.475Z,15.30
2022-10-19T15:16:08.170Z,15.30
2022-10-19T15:18:49.562Z,15.30
2022-10-19T15:21:21.565Z,15.20
2022-10-19T15:23:51.861Z,15.20
2022-10-19T15:26:22.945Z,15.20
2022-10-19T15:28:51.122Z,15.20
2022-10-19T15:31:21.613Z,15.20
2022-10-19T15:33:52.337Z,15.10
2022-10-19T15:36:22.086Z,15.10
2022-10-19T15:39:11.517Z,15.10
2022-10-19T15:41:49.633Z,15.10
2022-10-19T15:44:33.203Z,15.10
2022-10-19T15:47:22.338Z,15.00
2022-10-19T15:49:56.610Z,15.00
2022-10-19T15:52:26.062Z,15.00
2022-10-19T15:54:57.702Z,14.90
2022-10-19T15:57:29.521Z,14.90
2022-10-19T15:59:58.929Z,14.80
2022-10-19T16:02:27.061Z,14.80
2022-10-19T16:04:55.718Z,14.70
2022-10-19T16:07:27.960Z,14.70
2022-10-19T16:09:57.854Z,14.70
2022-10-19T16:12:27.060Z,14.70
2022-10-19T16:14:55.310Z,14.60
2022-10-19T16:17:23.910Z,14.60
2022-10-19T16:19:52.164Z,14.50
2022-10-19T16:22:20.111Z,14.50
2022-10-19T16:24:48.044Z,14.40
2022-10-19T16:27:17.397Z,14.40
2022-10-19T16:29:45.695Z,14.30
2022-10-19T16:32:13.639Z,14.30
2022-10-19T16:34:41.669Z,14.30
2022-10-19T16:37:09.576Z,14.20
2022-10-19T16:39:37.467Z,14.10
2022-10-19T16:42:05.365Z,14.10
2022-10-19T16:44:34.697Z,14.10
2022-10-19T16:47:02.725Z,14.00
2022-10-19T16:49:30.839Z,14.00
2022-10-19T16:52:00.581Z,13.90
2022-10-19T16:54:30.480Z,13.90
2022-10-19T16:56:58.460Z,13.90
2022-10-19T16:59:26.467Z,13.80
2022-10-19T17:02:00.092Z,13.80
2022-10-19T17:04:28.038Z,13.70
2022-10-19T17:06:57.110Z,13.70
2022-10-19T17:09:42.198Z,13.70
2022-10-19T17:12:11.273Z,13.60
2022-10-19T17:14:41.290Z,13.60
2022-10-19T17:17:11.730Z,13.50
2022-10-19T17:19:39.893Z,13.40
2022-10-19T17:22:07.838Z,13.40
2022-10-19T17:24:37.391Z,13.40
2022-10-19T17:27:05.241Z,13.40
2022-10-19T17:29:33.620Z,13.30
2022-10-19T17:32:01.555Z,13.30
2022-10-19T17:34:30.854Z,13.30
2022-10-19T17:36:58.825Z,13.20
2022-10-19T17:39:29.888Z,13.20
2022-10-19T17:42:01.720Z,13.20
2022-10-19T17:44:31.362Z,13.10
2022-10-19T17:47:00.697Z,13.10
2022-10-19T17:49:30.446Z,13.10
2022-10-19T17:51:58.587Z,13.00
2022-10-19T17:54:26.711Z,13.00
2022-10-19T17:56:54.808Z,13.00
2022-10-19T17:59:34.752Z,12.90
2022-10-19T18:02:09.348Z,12.90
2022-10-19T18:04:38.833Z,12.90
2022-10-19T18:07:06.785Z,12.90
2022-10-19T18:09:34.702Z,12.80
2022-10-19T18:12:04.876Z,12.80
2022-10-19T18:14:35.116Z,12.80
2022-10-19T18:17:02.997Z,12.70
2022-10-19T18:19:31.014Z,12.70
2022-10-19T18:22:00.351Z,12.70
2022-10-19T18:24:28.406Z,12.70
2022-10-19T18:26:56.368Z,12.60
2022-10-19T18:29:26.418Z,12.60
2022-10-19T18:31:55.059Z,12.60
2022-10-19T18:34:24.584Z,12.60
2022-10-19T18:36:53.294Z,12.50
2022-10-19T18:39:22.850Z,12.50
2022-10-19T18:41:54.133Z,12.50
2022-10-19T18:44:26.306Z,12.40
2022-10-19T18:46:56.597Z,12.40
2022-10-19T18:49:24.987Z,12.40
2022-10-19T18:51:55.410Z,12.40
2022-10-19T18:54:26.307Z,12.30
2022-10-19T18:56:54.630Z,12.30
2022-10-19T18:59:22.730Z,12.30
2022-10-19T19:01:51.038Z,12.20
2022-10-19T19:04:19.176Z,12.20
2022-10-19T19:06:47.162Z,12.20
2022-10-19T19:09:15.070Z,12.10
2022-10-19T19:11:44.379Z,12.10
2022-10-19T19:14:14.399Z,12.10
2022-10-19T19:16:44.713Z,12.10
2022-10-19T19:19:14.497Z,12.00
2022-10-19T19:21:44.380Z,12.00
2022-10-19T19:24:14.759Z,12.00
2022-10-19T19:26:47.456Z,11.90
2022-10-19T19:29:16.141Z,11.90
2022-10-19T19:31:44.293Z,11.90
2022-10-19T19:34:12.352Z,11.90
2022-10-19T19:39:09.813Z,11.80
2022-10-19T19:41:37.754Z,11.80
2022-10-19T19:44:07.066Z,11.80
2022-10-19T19:46:35.878Z,11.70
2022-10-19T19:49:05.475Z,11.70
2022-10-19T19:51:33.738Z,11.70
2022-10-19T19:54:01.930Z,11.70
2022-10-19T19:56:29.967Z,11.70
2022-10-19T19:58:59.390Z,11.60
2022-10-19T20:01:28.692Z,11.60
2022-10-19T20:03:59.156Z,11.50
2022-10-19T20:06:27.101Z,11.50
2022-10-19T20:08:56.310Z,11.50
2022-10-19T20:11:26.082Z,11.50
2022-10-19T20:13:54.205Z,11.50
2022-10-19T20:16:26.668Z,11.40
2022-10-19T20:19:01.972Z,11.40
2022-10-19T20:21:31.834Z,11.40
2022-10-19T20:23:59.799Z,11.40
2022-10-19T20:26:29.098Z,11.30
2022-10-19T20:28:57.943Z,11.30
2022-10-19T20:31:26.356Z,11.30
2022-10-19T20:33:54.350Z,11.30
2022-10-19T20:36:25.295Z,11.20
2022-10-19T20:38:55.805Z,11.30
2022-10-19T20:41:25.613Z,11.20
2022-10-19T20:43:54.587Z,11.20
2022-10-19T20:46:25.003Z,11.20
2022-10-19T20:48:53.013Z,11.10
2022-10-19T20:51:27.626Z,11.10
2022-10-19T20:53:59.888Z,11.10
2022-10-19T20:56:29.601Z,11.10
2022-10-19T20:58:59.680Z,11.10
2022-10-19T21:01:28.544Z,11.10
2022-10-19T21:03:58.308Z,11.00
2022-10-19T21:06:29.359Z,11.00
2022-10-19T21:08:58.617Z,11.00
2022-10-19T21:11:28.585Z,11.00
2022-10-19T21:13:58.077Z,11.00
2022-10-19T21:16:29.952Z,10.90
2022-10-19T21:19:00.393Z,10.90
2022-10-19T21:21:33.001Z,10.90
2022-10-19T21:24:04.462Z,10.90
2022-10-19T21:26:34.116Z,10.90
2022-10-19T21:29:02.749Z,10.90
2022-10-19T21:31:30.780Z,10.80
2022-10-19T21:33:59.095Z,10.80
2022-10-19T21:36:27.029Z,10.80
2022-10-19T21:38:57.427Z,10.80
2022-10-19T21:41:26.465Z,10.80
2022-10-19T21:43:54.825Z,10.70
2022-10-19T21:46:23.903Z,10.70
2022-10-19T21:48:52.118Z,10.70
2022-10-19T21:51:31.530Z,10.70
2022-10-19T21:54:01.259Z,10.60
2022-10-19T21:56:29.541Z,10.60
2022-10-19T21:58:57.853Z,10.60
2022-10-19T22:01:27.909Z,10.60
2022-10-19T22:03:57.605Z,10.50
2022-10-19T22:06:25.934Z,10.50
2022-10-19T22:08:53.986Z,10.50
2022-10-19T22:11:24.281Z,10.50
2022-10-19T22:13:55.107Z,10.50
2022-10-19T22:16:24.020Z,10.40
2022-10-19T22:18:52.518Z,10.40
2022-10-19T22:21:23.001Z,10.40
2022-10-19T22:23:55.349Z,10.40
2022-10-19T22:26:26.422Z,10.40
2022-10-19T22:28:56.581Z,10.40
2022-10-19T22:31:24.774Z,10.30
2022-10-19T22:33:52.683Z,10.30
2022-10-19T22:36:20.781Z,10.30
2022-10-19T22:38:48.731Z,10.30
2022-10-19T22:42:06.450Z,10.30
2022-10-19T22:44:35.745Z,10.20
2022-10-19T22:47:03.769Z,10.20
2022-10-19T22:49:32.925Z,10.20
2022-10-19T22:52:00.851Z,10.20
2022-10-19T22:54:28.820Z,10.20
2022-10-19T22:56:56.771Z,10.20
2022-10-19T22:59:24.832Z,10.20
2022-10-19T23:01:54.219Z,10.10
2022-10-19T23:04:22.244Z,10.10
2022-10-19T23:06:50.269Z,10.10
2022-10-19T23:09:18.216Z,10.10
2022-10-19T23:11:46.191Z,10.10
2022-10-19T23:14:14.157Z,10.10
2022-10-19T23:16:42.160Z,10.10
2022-10-19T23:19:11.584Z,10.10
2022-10-19T23:21:39.530Z,10.10
2022-10-19T23:24:07.752Z,10.10
2022-10-19T23:26:35.716Z,10.10
2022-10-19T23:29:03.694Z,10.10
2022-10-19T23:31:32.810Z,10.00
2022-10-19T23:34:00.822Z,10.00
2022-10-19T23:36:30.585Z,10.00
2022-10-19T23:38:59.285Z,10.00
2022-10-19T23:41:27.552Z,10.00
2022-10-19T23:43:55.512Z,10.00
2022-10-19T23:46:23.489Z,10.00
2022-10-19T23:48:51.452Z,10.00
2022-10-19T23:51:20.961Z,10.00
2022-10-19T23:53:51.583Z,10.00
2022-10-19T23:56:21.265Z,10.00
2022-10-19T23:58:49.485Z,10.00
